createdAt,value
2023-03-25T00:00:19.081Z,2.58
2023-03-25T00:02:49.462Z,3.10
2023-03-25T00:05:19.757Z,2.38
2023-03-25T00:07:50.636Z,2.28
2023-03-25T00:10:18.666Z,2.22
2023-03-25T00:12:46.018Z,2.20
2023-03-25T00:15:13.526Z,2.80
2023-03-25T00:17:40.796Z,2.72
2023-03-25T00:20:10.217Z,2.67
2023-03-25T00:22:40.984Z,2.40
2023-03-25T00:25:20.384Z,2.42
2023-03-25T00:27:48.742Z,2.42
2023-03-25T00:30:18.050Z,2.10
2023-03-25T00:32:49.983Z,3.80
2023-03-25T00:35:21.153Z,2.33
2023-03-25T00:40:25.980Z,3.13
2023-03-25T00:42:53.178Z,2.72
2023-03-25T00:45:20.456Z,2.72
2023-03-25T00:47:47.699Z,2.55
2023-03-25T00:50:15.358Z,2.00
2023-03-25T00:52:42.693Z,2.80
2023-03-25T00:55:10.566Z,2.30
2023-03-25T00:57:37.774Z,2.67
2023-03-25T01:00:08.687Z,2.83
2023-03-25T01:02:36.365Z,2.63
2023-03-25T01:05:04.452Z,2.60
2023-03-25T01:07:32.693Z,3.40
2023-03-25T01:10:07.195Z,2.70
2023-03-25T01:12:34.714Z,3.15
2023-03-25T01:15:03.638Z,2.75
2023-03-25T01:17:31.511Z,2.85
2023-03-25T01:19:59.021Z,3.00
2023-03-25T01:22:26.290Z,2.67
2023-03-25T01:24:53.533Z,3.17
2023-03-25T01:27:20.844Z,2.90
2023-03-25T01:29:48.076Z,2.90
2023-03-25T01:32:15.434Z,3.80
2023-03-25T01:34:42.961Z,4.28
2023-03-25T01:37:10.297Z,2.63
2023-03-25T01:39:37.804Z,3.20
2023-03-25T01:42:05.973Z,2.47
2023-03-25T01:44:34.296Z,2.72
2023-03-25T01:47:05.344Z,4.13
2023-03-25T01:49:38.889Z,3.38
2023-03-25T01:52:12.816Z,2.97
2023-03-25T01:54:41.866Z,3.47
2023-03-25T01:57:13.203Z,3.08
2023-03-25T01:59:41.603Z,3.25
2023-03-25T02:02:10.535Z,3.20
2023-03-25T02:04:59.162Z,4.07
2023-03-25T02:07:33.109Z,3.38
2023-03-25T02:10:05.783Z,3.72
2023-03-25T02:12:33.444Z,3.40
2023-03-25T02:15:03.841Z,3.42
2023-03-25T02:18:16.223Z,4.00
2023-03-25T02:20:55.654Z,3.15
2023-03-25T02:23:58.031Z,4.20
2023-03-25T02:27:05.300Z,2.95
2023-03-25T02:29:59.183Z,3.88
2023-03-25T02:32:52.924Z,3.85
2023-03-25T02:35:50.081Z,4.68
2023-03-25T02:38:31.617Z,3.85
2023-03-25T02:41:18.212Z,3.50
2023-03-25T02:44:02.163Z,5.55
2023-03-25T02:46:33.646Z,3.70
2023-03-25T02:49:10.814Z,4.25
2023-03-25T02:51:46.234Z,4.55
2023-03-25T02:54:16.762Z,3.80
2023-03-25T02:56:47.665Z,4.35
2023-03-25T02:59:17.731Z,4.10
2023-03-25T03:01:50.481Z,4.13
2023-03-25T03:04:19.060Z,3.30
2023-03-25T03:06:46.322Z,4.45
2023-03-25T03:09:23.045Z,4.47
2023-03-25T03:12:31.811Z,4.47
2023-03-25T03:15:16.318Z,4.60
2023-03-25T03:18:09.900Z,4.32
2023-03-25T03:20:43.254Z,4.80
2023-03-25T03:23:28.385Z,4.20
2023-03-25T03:26:30.001Z,5.35
2023-03-25T03:29:00.955Z,4.25
2023-03-25T03:32:05.595Z,5.03
2023-03-25T03:34:45.237Z,4.88
2023-03-25T03:37:22.192Z,4.43
2023-03-25T03:39:52.030Z,4.35
2023-03-25T03:42:29.791Z,4.70
2023-03-25T03:45:03.377Z,4.13
2023-03-25T03:47:36.676Z,4.05
2023-03-25T03:50:14.341Z,4.90
2023-03-25T03:53:04.494Z,5.68
2023-03-25T03:55:43.712Z,3.45
2023-03-25T03:58:30.270Z,3.45
2023-03-25T04:01:11.711Z,3.75
2023-03-25T04:04:07.662Z,3.83
2023-03-25T04:06:42.155Z,4.07
2023-03-25T04:09:34.697Z,3.78
2023-03-25T04:12:27.317Z,3.90
2023-03-25T04:15:03.817Z,3.55
2023-03-25T04:17:33.134Z,3.97
2023-03-25T04:20:02.006Z,3.60
2023-03-25T04:22:29.611Z,3.53
2023-03-25T04:25:02.507Z,3.50
2023-03-25T04:27:32.786Z,4.28
2023-03-25T04:30:04.088Z,3.95
2023-03-25T04:32:31.404Z,3.78
2023-03-25T04:34:58.751Z,4.40
2023-03-25T04:37:27.812Z,4.97
2023-03-25T04:39:56.247Z,3.55
2023-03-25T04:42:25.834Z,3.42
2023-03-25T04:44:53.089Z,3.55
2023-03-25T04:47:25.345Z,4.20
2023-03-25T04:49:52.662Z,4.72
2023-03-25T04:52:19.862Z,3.55
2023-03-25T04:54:47.182Z,4.93
2023-03-25T04:57:15.390Z,4.22
2023-03-25T04:59:42.804Z,4.00
2023-03-25T05:02:13.612Z,5.13
2023-03-25T05:04:47.903Z,4.45
2023-03-25T05:07:16.707Z,3.78
2023-03-25T05:09:44.135Z,3.92
2023-03-25T05:12:11.650Z,4.03
2023-03-25T05:14:39.010Z,4.65
2023-03-25T05:17:06.153Z,4.90
2023-03-25T05:19:35.279Z,3.58
2023-03-25T05:22:04.737Z,3.97
2023-03-25T05:24:32.092Z,4.32
2023-03-25T05:27:05.449Z,4.35
2023-03-25T05:29:34.123Z,4.70
2023-03-25T05:32:05.535Z,4.15
2023-03-25T05:34:33.488Z,4.60
2023-03-25T05:37:02.779Z,4.00
2023-03-25T05:39:29.970Z,4.28
2023-03-25T05:42:03.379Z,5.50
2023-03-25T05:44:30.611Z,5.03
2023-03-25T05:47:02.787Z,5.03
2023-03-25T05:49:30.032Z,3.70
2023-03-25T05:51:57.255Z,4.35
2023-03-25T05:54:28.616Z,5.05
2023-03-25T05:56:56.116Z,4.82
2023-03-25T05:59:23.475Z,4.45
2023-03-25T06:01:50.652Z,5.00
2023-03-25T06:04:17.891Z,3.40
2023-03-25T06:06:45.116Z,3.60
2023-03-25T06:09:12.359Z,3.60
2023-03-25T06:11:39.582Z,3.70
2023-03-25T06:14:07.641Z,4.40
2023-03-25T06:16:35.706Z,4.82
2023-03-25T06:19:03.787Z,5.05
2023-03-25T06:21:34.695Z,4.65
2023-03-25T06:24:06.032Z,4.63
2023-03-25T06:26:33.330Z,4.72
2023-03-25T06:29:05.580Z,3.50
2023-03-25T06:31:33.929Z,4.43
2023-03-25T06:34:03.591Z,3.92
2023-03-25T06:36:31.526Z,4.90
2023-03-25T06:38:58.838Z,4.97
2023-03-25T06:41:28.734Z,4.80
2023-03-25T06:44:25.047Z,4.72
2023-03-25T06:47:30.822Z,4.38
2023-03-25T06:49:58.220Z,4.40
2023-03-25T06:52:25.588Z,4.88
2023-03-25T06:54:52.820Z,4.90
2023-03-25T06:57:19.996Z,4.93
2023-03-25T06:59:48.357Z,3.97
2023-03-25T07:02:15.801Z,2.70
2023-03-25T07:04:42.990Z,2.78
2023-03-25T07:07:10.517Z,3.05
2023-03-25T07:09:37.789Z,2.78
2023-03-25T07:12:06.990Z,2.97
2023-03-25T07:14:36.174Z,3.13
2023-03-25T07:17:03.473Z,4.22
2023-03-25T07:19:31.038Z,3.90
2023-03-25T07:21:58.345Z,4.18
2023-03-25T07:24:25.726Z,3.95
2023-03-25T07:26:52.912Z,4.90
2023-03-25T07:29:23.614Z,4.60
2023-03-25T07:31:51.019Z,4.82
2023-03-25T07:34:18.266Z,4.22
2023-03-25T07:36:45.646Z,3.88
2023-03-25T07:39:15.569Z,4.93
2023-03-25T07:41:43.190Z,5.40
2023-03-25T07:44:21.444Z,3.95
2023-03-25T07:46:50.198Z,3.50
2023-03-25T07:49:17.722Z,3.35
2023-03-25T07:51:45.766Z,2.70
2023-03-25T07:54:13.004Z,2.92
2023-03-25T07:56:40.408Z,2.03
2023-03-25T07:59:07.781Z,1.83
2023-03-25T08:01:35.582Z,2.05
2023-03-25T08:04:04.537Z,2.33
2023-03-25T08:06:32.224Z,2.20
2023-03-25T08:08:59.467Z,2.45
2023-03-25T08:11:26.687Z,2.67
2023-03-25T08:13:53.854Z,3.40
2023-03-25T08:16:21.141Z,4.35
2023-03-25T08:18:48.313Z,3.42
2023-03-25T08:21:17.326Z,2.60
2023-03-25T08:23:44.818Z,3.17
2023-03-25T08:26:11.964Z,3.10
2023-03-25T08:28:39.252Z,2.83
2023-03-25T08:31:08.467Z,3.00
2023-03-25T08:33:39.645Z,3.10
2023-03-25T08:36:10.663Z,2.45
2023-03-25T08:38:38.010Z,3.42
2023-03-25T08:41:05.264Z,2.78
2023-03-25T08:43:32.406Z,3.63
2023-03-25T08:45:59.729Z,3.42
2023-03-25T08:48:27.056Z,2.72
2023-03-25T08:50:54.287Z,3.30
2023-03-25T08:53:21.506Z,3.13
2023-03-25T08:55:53.452Z,2.72
2023-03-25T08:58:22.767Z,3.78
2023-03-25T09:00:54.372Z,3.13
2023-03-25T09:03:23.318Z,2.42
2023-03-25T09:05:51.121Z,2.97
2023-03-25T09:08:18.632Z,3.33
2023-03-25T09:10:45.917Z,2.33
2023-03-25T09:13:13.122Z,2.85
2023-03-25T09:15:40.498Z,2.60
2023-03-25T09:18:08.332Z,2.50
2023-03-25T09:20:35.794Z,2.53
2023-03-25T09:23:03.476Z,2.90
2023-03-25T09:25:30.773Z,3.10
2023-03-25T09:27:58.016Z,3.25
2023-03-25T09:30:25.687Z,2.33
2023-03-25T09:32:53.279Z,2.97
2023-03-25T09:35:20.692Z,3.25
2023-03-25T09:37:52.021Z,2.88
2023-03-25T09:40:21.999Z,3.55
2023-03-25T09:43:08.246Z,4.05
2023-03-25T09:45:42.344Z,2.53
2023-03-25T09:48:38.281Z,2.60
2023-03-25T09:51:10.897Z,3.17
2023-03-25T09:54:24.711Z,2.70
2023-03-25T09:56:53.246Z,3.35
2023-03-25T09:59:23.598Z,2.40
2023-03-25T10:02:26.822Z,3.10
2023-03-25T10:05:16.081Z,2.83
2023-03-25T10:07:56.408Z,1.83
2023-03-25T10:10:32.910Z,3.22
2023-03-25T10:13:03.160Z,1.88
2023-03-25T10:15:43.855Z,3.13
2023-03-25T10:18:29.634Z,3.17
2023-03-25T10:21:13.522Z,3.97
2023-03-25T10:24:15.786Z,3.13
2023-03-25T10:26:49.112Z,3.50
2023-03-25T10:29:21.970Z,2.58
2023-03-25T10:31:54.722Z,2.97
2023-03-25T10:34:46.767Z,3.78
2023-03-25T10:37:21.626Z,2.28
2023-03-25T10:39:49.967Z,2.33
2023-03-25T10:42:32.034Z,2.78
2023-03-25T10:44:59.244Z,2.60
2023-03-25T10:47:38.744Z,2.60
2023-03-25T10:50:06.978Z,3.58
2023-03-25T10:52:34.560Z,3.08
2023-03-25T10:55:02.261Z,2.83
2023-03-25T10:57:31.726Z,2.45
2023-03-25T11:00:02.186Z,4.03
2023-03-25T11:02:31.371Z,2.65
2023-03-25T11:05:07.813Z,2.30
2023-03-25T11:07:41.702Z,3.03
2023-03-25T11:10:17.918Z,2.83
2023-03-25T11:12:46.737Z,3.00
2023-03-25T11:15:35.536Z,3.50
2023-03-25T11:18:12.466Z,3.58
2023-03-25T11:20:46.122Z,2.72
2023-03-25T11:23:28.073Z,3.30
2023-03-25T11:26:04.009Z,2.50
2023-03-25T11:28:45.004Z,3.03
2023-03-25T11:31:26.351Z,3.28
2023-03-25T11:34:09.113Z,3.67
2023-03-25T11:36:40.405Z,3.20
2023-03-25T11:39:23.671Z,2.40
2023-03-25T11:41:52.107Z,3.10
2023-03-25T11:44:29.825Z,2.72
2023-03-25T11:47:04.460Z,2.72
2023-03-25T11:49:37.586Z,3.17
2023-03-25T11:52:09.509Z,3.30
2023-03-25T11:54:37.647Z,3.40
2023-03-25T11:57:11.184Z,3.40
2023-03-25T11:59:49.798Z,2.70
2023-03-25T12:02:38.378Z,2.97
2023-03-25T12:05:08.663Z,2.80
2023-03-25T12:08:15.112Z,2.22
2023-03-25T12:10:51.591Z,2.85
2023-03-25T12:13:37.538Z,2.30
2023-03-25T12:16:40.709Z,2.30
2023-03-25T12:19:23.067Z,1.60
2023-03-25T12:21:56.408Z,2.38
2023-03-25T12:25:01.484Z,1.85
2023-03-25T12:28:21.791Z,2.28
2023-03-25T12:31:09.047Z,2.00
2023-03-25T12:34:03.881Z,2.25
2023-03-25T12:36:38.861Z,2.30
2023-03-25T12:39:39.628Z,2.58
2023-03-25T12:42:10.022Z,2.17
2023-03-25T12:44:40.507Z,2.17
2023-03-25T12:47:23.572Z,2.58
2023-03-25T12:50:11.720Z,1.80
2023-03-25T12:53:01.622Z,2.40
2023-03-25T12:55:28.945Z,2.90
2023-03-25T12:57:59.211Z,1.70
2023-03-25T13:00:54.827Z,2.28
2023-03-25T13:04:07.312Z,2.53
2023-03-25T13:06:46.512Z,2.42
2023-03-25T13:09:38.026Z,2.35
2023-03-25T13:12:33.654Z,2.35
2023-03-25T13:15:21.902Z,2.20
2023-03-25T13:18:09.456Z,2.33
2023-03-25T13:20:46.664Z,3.05
2023-03-25T13:23:17.837Z,2.53
2023-03-25T13:25:54.318Z,3.05
2023-03-25T13:28:26.269Z,2.20
2023-03-25T13:30:55.434Z,2.58
2023-03-25T13:33:31.411Z,1.88
2023-03-25T13:36:32.225Z,1.88
2023-03-25T13:39:06.621Z,2.55
2023-03-25T13:41:44.417Z,1.85
2023-03-25T13:44:19.983Z,2.72
2023-03-25T13:46:52.711Z,1.98
2023-03-25T13:49:43.698Z,1.88
2023-03-25T13:52:14.321Z,1.77
2023-03-25T13:54:56.511Z,2.50
2023-03-25T13:57:26.813Z,1.95
2023-03-25T14:00:28.949Z,2.40
2023-03-25T14:02:56.699Z,3.00
2023-03-25T14:05:36.170Z,2.05
2023-03-25T14:08:13.550Z,3.22
2023-03-25T14:10:54.042Z,2.63
2023-03-25T14:13:30.328Z,2.40
2023-03-25T14:16:10.312Z,1.98
2023-03-25T14:18:52.614Z,1.83
2023-03-25T14:21:41.453Z,1.20
2023-03-25T14:24:17.677Z,1.30
2023-03-25T14:27:00.432Z,1.30
2023-03-25T14:30:00.811Z,1.30
2023-03-25T14:32:40.331Z,1.50
2023-03-25T14:35:38.650Z,1.65
2023-03-25T14:38:06.071Z,2.00
2023-03-25T14:40:55.483Z,1.95
2023-03-25T14:43:40.426Z,2.35
2023-03-25T14:46:10.697Z,2.25
2023-03-25T14:48:49.101Z,2.30
2023-03-25T14:51:30.787Z,1.95
2023-03-25T14:54:05.766Z,2.22
2023-03-25T14:56:52.323Z,2.20
2023-03-25T14:59:25.306Z,2.65
2023-03-25T15:01:53.478Z,2.30
2023-03-25T15:04:30.012Z,2.72
2023-03-25T15:06:59.572Z,2.65
2023-03-25T15:09:29.903Z,2.20
2023-03-25T15:12:03.932Z,2.63
2023-03-25T15:14:38.953Z,2.55
2023-03-25T15:17:11.214Z,2.22
2023-03-25T15:20:12.138Z,2.53
2023-03-25T15:25:19.986Z,2.55
2023-03-25T15:28:05.788Z,2.30
2023-03-25T15:30:42.020Z,2.80
2023-03-25T15:33:24.654Z,2.40
2023-03-25T15:35:56.331Z,2.15
2023-03-25T15:38:48.477Z,3.15
2023-03-25T15:41:15.937Z,1.83
2023-03-25T15:43:54.025Z,2.50
2023-03-25T15:46:46.514Z,1.75
2023-03-25T15:49:32.013Z,2.60
2023-03-25T15:52:12.172Z,2.65
2023-03-25T15:54:52.206Z,2.55
2023-03-25T15:57:19.535Z,2.08
2023-03-25T16:00:13.448Z,2.40
2023-03-25T16:02:59.646Z,2.20
2023-03-25T16:05:27.873Z,2.67
2023-03-25T16:07:59.130Z,2.58
2023-03-25T16:10:36.475Z,2.28
2023-03-25T16:13:24.160Z,1.88
2023-03-25T16:15:55.236Z,2.15
2023-03-25T16:18:24.238Z,2.03
2023-03-25T16:21:00.964Z,2.85
2023-03-25T16:23:30.781Z,2.78
2023-03-25T16:25:58.062Z,2.33
2023-03-25T16:28:33.815Z,2.75
2023-03-25T16:31:03.042Z,2.42
2023-03-25T16:33:37.159Z,3.05
2023-03-25T16:36:31.244Z,2.00
2023-03-25T16:38:58.637Z,3.60
2023-03-25T16:41:26.094Z,2.38
2023-03-25T16:43:54.926Z,2.10
2023-03-25T16:46:23.539Z,1.73
2023-03-25T16:48:54.180Z,2.42
2023-03-25T16:51:25.570Z,2.47
2023-03-25T16:53:56.010Z,2.20
2023-03-25T16:56:27.720Z,1.83
2023-03-25T16:59:05.617Z,2.08
2023-03-25T17:01:42.732Z,2.47
2023-03-25T17:04:22.751Z,2.40
2023-03-25T17:06:53.372Z,1.97
2023-03-25T17:09:35.252Z,2.45
2023-03-25T17:12:08.699Z,3.15
2023-03-25T17:14:42.911Z,2.85
2023-03-25T17:17:17.808Z,3.33
2023-03-25T17:19:48.274Z,3.00
2023-03-25T17:22:30.022Z,3.05
2023-03-25T17:24:59.450Z,2.53
2023-03-25T17:27:38.733Z,5.60
2023-03-25T17:30:41.792Z,4.60
2023-03-25T17:33:31.555Z,3.65
2023-03-25T17:35:59.219Z,5.00
2023-03-25T17:38:28.556Z,3.40
2023-03-25T17:41:07.539Z,2.95
2023-03-25T17:43:42.639Z,2.72
2023-03-25T17:46:10.862Z,3.78
2023-03-25T17:48:38.208Z,3.28
2023-03-25T17:51:05.734Z,3.55
2023-03-25T17:53:33.134Z,3.35
2023-03-25T17:56:03.515Z,4.55
2023-03-25T17:58:31.117Z,3.55
2023-03-25T18:00:59.352Z,4.10
2023-03-25T18:03:28.272Z,3.28
2023-03-25T18:05:55.794Z,4.10
2023-03-25T18:08:25.174Z,3.75
2023-03-25T18:10:54.261Z,2.90
2023-03-25T18:13:24.793Z,4.32
2023-03-25T18:15:53.644Z,3.95
2023-03-25T18:18:24.873Z,4.53
2023-03-25T18:20:56.043Z,4.45
2023-03-25T18:23:26.929Z,4.80
2023-03-25T18:25:54.271Z,4.40
2023-03-25T18:28:21.866Z,5.13
2023-03-25T18:30:59.561Z,4.13
2023-03-25T18:33:28.755Z,4.53
2023-03-25T18:35:59.473Z,4.50
2023-03-25T18:40:56.738Z,3.88
2023-03-25T18:43:24.097Z,4.22
2023-03-25T18:45:51.827Z,4.47
2023-03-25T18:48:21.490Z,4.50
2023-03-25T18:50:54.804Z,3.38
2023-03-25T18:53:27.469Z,3.90
2023-03-25T18:56:00.843Z,4.00
2023-03-25T18:58:31.282Z,3.67
2023-03-25T19:01:03.375Z,2.85
2023-03-25T19:03:31.830Z,3.28
2023-03-25T19:06:00.613Z,3.58
2023-03-25T19:08:28.756Z,3.28
2023-03-25T19:11:04.566Z,4.05
2023-03-25T19:13:40.026Z,2.97
2023-03-25T19:16:10.962Z,2.83
2023-03-25T19:18:38.234Z,3.53
2023-03-25T19:21:07.300Z,3.47
2023-03-25T19:23:35.470Z,2.65
2023-03-25T19:26:03.893Z,2.65
2023-03-25T19:28:31.146Z,2.90
2023-03-25T19:31:03.272Z,3.25
2023-03-25T19:33:31.478Z,3.40
2023-03-25T19:36:02.343Z,3.60
2023-03-25T19:38:33.212Z,2.80
2023-03-25T19:41:09.292Z,2.90
2023-03-25T19:43:36.767Z,3.17
2023-03-25T19:46:05.644Z,2.97
2023-03-25T19:48:34.061Z,3.05
2023-03-25T19:51:04.103Z,3.75
2023-03-25T19:53:31.621Z,4.20
2023-03-25T19:56:04.728Z,3.17
2023-03-25T19:58:32.681Z,3.88
2023-03-25T20:01:00.015Z,3.65
2023-03-25T20:03:31.384Z,4.07
2023-03-25T20:06:03.638Z,3.15
2023-03-25T20:08:31.962Z,3.80
2023-03-25T20:10:59.494Z,3.45
2023-03-25T20:13:27.025Z,3.50
2023-03-25T20:15:54.735Z,4.72
2023-03-25T20:18:22.243Z,3.05
2023-03-25T20:20:49.486Z,3.72
2023-03-25T20:23:16.939Z,4.55
2023-03-25T20:25:44.488Z,3.63
2023-03-25T20:28:11.829Z,3.58
2023-03-25T20:30:39.855Z,2.80
2023-03-25T20:33:07.165Z,3.22
2023-03-25T20:35:34.861Z,3.58
2023-03-25T20:38:03.348Z,4.15
2023-03-25T20:40:41.579Z,3.38
2023-03-25T20:43:14.040Z,4.30
2023-03-25T20:45:42.959Z,3.47
2023-03-25T20:48:10.825Z,3.10
2023-03-25T20:50:38.666Z,2.70
2023-03-25T20:53:06.334Z,3.05
2023-03-25T20:55:34.016Z,3.15
2023-03-25T20:58:04.163Z,2.70
2023-03-25T21:00:31.976Z,3.03
2023-03-25T21:02:59.399Z,2.90
2023-03-25T21:05:28.048Z,4.07
2023-03-25T21:07:55.533Z,3.15
2023-03-25T21:10:22.781Z,3.00
2023-03-25T21:12:50.173Z,2.67
2023-03-25T21:15:18.092Z,3.33
2023-03-25T21:17:45.633Z,3.17
2023-03-25T21:20:13.034Z,3.30
2023-03-25T21:22:45.321Z,3.42
2023-03-25T21:25:14.791Z,3.00
2023-03-25T21:27:45.358Z,3.43
2023-03-25T21:30:14.132Z,3.95
2023-03-25T21:32:42.233Z,4.40
2023-03-25T21:35:09.918Z,3.75
2023-03-25T21:37:38.883Z,4.00
2023-03-25T21:40:10.289Z,3.95
2023-03-25T21:42:38.828Z,3.88
2023-03-25T21:45:07.898Z,3.40
2023-03-25T21:47:36.450Z,4.28
2023-03-25T21:50:07.661Z,3.78
2023-03-25T21:52:35.972Z,3.53
2023-03-25T21:55:03.925Z,3.90
2023-03-25T21:57:31.195Z,3.75
2023-03-25T21:59:58.585Z,4.20
2023-03-25T22:02:29.155Z,4.00
2023-03-25T22:04:56.360Z,4.65
2023-03-25T22:07:23.738Z,4.85
2023-03-25T22:09:52.495Z,4.32
2023-03-25T22:12:19.740Z,4.70
2023-03-25T22:14:47.622Z,5.43
2023-03-25T22:17:15.160Z,3.83
2023-03-25T22:19:42.516Z,4.57
2023-03-25T22:22:12.110Z,4.40
2023-03-25T22:24:39.491Z,4.63
2023-03-25T22:27:06.881Z,4.30
2023-03-25T22:29:34.348Z,4.30
2023-03-25T22:32:07.861Z,4.32
2023-03-25T22:34:35.485Z,4.25
2023-03-25T22:37:04.439Z,5.07
2023-03-25T22:39:31.728Z,3.95
2023-03-25T22:41:59.193Z,4.18
2023-03-25T22:44:26.623Z,3.67
2023-03-25T22:46:53.851Z,3.65
2023-03-25T22:49:21.862Z,3.70
2023-03-25T22:51:51.142Z,3.92
2023-03-25T22:54:18.611Z,3.95
2023-03-25T22:56:45.992Z,3.40
2023-03-25T22:59:14.601Z,3.47
2023-03-25T23:01:43.340Z,3.13
2023-03-25T23:04:10.892Z,5.32
2023-03-25T23:06:38.670Z,2.95
2023-03-25T23:09:08.600Z,3.55
2023-03-25T23:11:36.924Z,3.47
2023-03-25T23:14:13.355Z,3.42
2023-03-25T23:16:41.815Z,3.45
2023-03-25T23:19:10.278Z,4.53
2023-03-25T23:21:40.814Z,3.58
2023-03-25T23:24:08.576Z,4.40
2023-03-25T23:26:38.925Z,3.80
2023-03-25T23:29:10.426Z,3.60
2023-03-25T23:31:43.081Z,3.45
2023-03-25T23:34:14.544Z,3.33
2023-03-25T23:36:42.460Z,2.88
2023-03-25T23:39:13.618Z,3.53
2023-03-25T23:41:41.366Z,3.50
2023-03-25T23:44:08.613Z,3.78
2023-03-25T23:46:36.212Z,3.65
2023-03-25T23:49:05.799Z,3.95
2023-03-25T23:51:36.765Z,4.07
2023-03-25T23:54:06.007Z,3.92
2023-03-25T23:56:33.632Z,3.50
2023-03-25T23:59:03.676Z,3.92
